createdAt,value
2022-10-12T00:00:50.158Z,6.50
2022-10-12T00:03:18.188Z,6.40
2022-10-12T00:05:46.223Z,6.40
2022-10-12T00:08:14.405Z,6.50
2022-10-12T00:10:45.545Z,6.30
2022-10-12T00:13:13.514Z,6.20
2022-10-12T00:15:43.148Z,6.30
2022-10-12T00:18:11.065Z,6.30
2022-10-12T00:20:39.077Z,6.20
2022-10-12T00:23:08.004Z,6.10
2022-10-12T00:25:37.676Z,6.10
2022-10-12T00:28:06.170Z,6.00
2022-10-12T00:30:34.457Z,6.00
2022-10-12T00:33:03.707Z,6.00
2022-10-12T00:35:31.718Z,6.10
2022-10-12T00:37:59.688Z,6.00
2022-10-12T00:40:27.702Z,6.10
2022-10-12T00:42:55.610Z,6.20
2022-10-12T00:45:26.264Z,6.10
2022-10-12T00:47:58.216Z,6.00
2022-10-12T00:50:30.496Z,5.90
2022-10-12T00:53:04.657Z,5.90
2022-10-12T00:55:36.830Z,5.80
2022-10-12T00:58:06.279Z,5.80
2022-10-12T01:00:34.402Z,5.80
2022-10-12T01:03:02.722Z,5.80
2022-10-12T01:05:32.110Z,5.70
2022-10-12T01:08:00.656Z,5.70
2022-10-12T01:10:28.725Z,5.70
2022-10-12T01:12:56.832Z,5.70
2022-10-12T01:15:32.338Z,5.70
2022-10-12T01:18:07.505Z,5.60
2022-10-12T01:21:00.418Z,5.70
2022-10-12T01:23:50.688Z,5.80
2022-10-12T01:26:47.445Z,6.20
2022-10-12T01:29:31.492Z,6.40
2022-10-12T01:32:07.758Z,6.40
2022-10-12T01:34:43.829Z,6.20
2022-10-12T01:37:17.858Z,6.10
2022-10-12T01:39:51.237Z,6.00
2022-10-12T01:42:24.548Z,5.90
2022-10-12T01:44:52.492Z,5.80
2022-10-12T01:47:22.217Z,5.80
2022-10-12T01:49:50.256Z,5.70
2022-10-12T01:52:29.523Z,5.60
2022-10-12T01:55:17.439Z,5.50
2022-10-12T01:57:56.272Z,5.40
2022-10-12T02:00:26.617Z,5.40
2022-10-12T02:03:06.101Z,5.60
2022-10-12T02:05:37.692Z,5.60
2022-10-12T02:08:12.950Z,5.50
2022-10-12T02:10:45.984Z,5.50
2022-10-12T02:13:15.974Z,5.50
2022-10-12T02:15:45.813Z,5.40
2022-10-12T02:18:19.090Z,5.40
2022-10-12T02:20:48.755Z,5.30
2022-10-12T02:23:18.417Z,5.30
2022-10-12T02:25:48.157Z,5.50
2022-10-12T02:28:19.610Z,5.40
2022-10-12T02:30:53.514Z,5.40
2022-10-12T02:33:27.092Z,5.40
2022-10-12T02:36:01.466Z,5.40
2022-10-12T02:38:33.891Z,5.30
2022-10-12T02:41:06.609Z,5.30
2022-10-12T02:43:39.490Z,5.30
2022-10-12T02:46:09.326Z,5.20
2022-10-12T02:48:41.243Z,5.10
2022-10-12T02:51:11.321Z,5.10
2022-10-12T02:53:40.133Z,5.10
2022-10-12T02:56:11.914Z,5.20
2022-10-12T02:58:40.492Z,5.20
2022-10-12T03:01:08.753Z,5.10
2022-10-12T03:03:38.082Z,5.20
2022-10-12T03:06:06.350Z,5.20
2022-10-12T03:08:34.319Z,5.10
2022-10-12T03:11:03.575Z,5.00
2022-10-12T03:13:31.771Z,5.10
2022-10-12T03:16:03.320Z,5.40
2022-10-12T03:18:31.456Z,5.40
2022-10-12T03:21:01.128Z,5.30
2022-10-12T03:23:29.146Z,5.20
2022-10-12T03:25:57.267Z,5.20
2022-10-12T03:28:25.392Z,5.20
2022-10-12T03:30:53.410Z,5.20
2022-10-12T03:33:21.390Z,5.10
2022-10-12T03:35:49.665Z,5.10
2022-10-12T03:38:19.915Z,5.00
2022-10-12T03:40:48.269Z,5.00
2022-10-12T03:43:17.161Z,5.00
2022-10-12T03:45:45.169Z,5.00
2022-10-12T03:48:13.351Z,4.90
2022-10-12T03:50:41.474Z,4.80
2022-10-12T03:53:09.483Z,4.80
2022-10-12T03:55:39.049Z,4.70
2022-10-12T03:58:06.999Z,4.70
2022-10-12T04:00:35.110Z,4.70
2022-10-12T04:03:03.148Z,4.80
2022-10-12T04:05:31.959Z,4.80
2022-10-12T04:08:00.379Z,4.80
2022-10-12T04:10:28.385Z,5.00
2022-10-12T04:12:57.823Z,4.90
2022-10-12T04:15:25.796Z,4.80
2022-10-12T04:17:54.418Z,4.80
2022-10-12T04:20:22.408Z,5.20
2022-10-12T04:22:50.438Z,5.00
2022-10-12T04:25:18.501Z,5.00
2022-10-12T04:27:46.472Z,4.90
2022-10-12T04:30:16.102Z,4.80
2022-10-12T04:32:46.487Z,4.80
2022-10-12T04:35:14.460Z,4.70
2022-10-12T04:37:42.463Z,4.80
2022-10-12T04:40:11.214Z,5.00
2022-10-12T04:42:41.483Z,4.80
2022-10-12T04:45:10.396Z,5.00
2022-10-12T04:47:40.011Z,4.80
2022-10-12T04:50:09.145Z,4.60
2022-10-12T04:52:37.109Z,4.70
2022-10-12T04:55:05.674Z,5.10
2022-10-12T04:57:35.972Z,5.30
2022-10-12T05:00:04.651Z,5.20
2022-10-12T05:02:32.647Z,5.10
2022-10-12T05:05:01.959Z,4.90
2022-10-12T05:07:29.941Z,4.90
2022-10-12T05:09:57.923Z,4.80
2022-10-12T05:12:25.927Z,4.80
2022-10-12T05:14:53.902Z,4.70
2022-10-12T05:17:21.803Z,4.60
2022-10-12T05:19:52.688Z,4.80
2022-10-12T05:22:21.977Z,4.90
2022-10-12T05:24:53.652Z,4.80
2022-10-12T05:27:22.022Z,4.80
2022-10-12T05:29:50.097Z,4.80
2022-10-12T05:32:18.171Z,4.70
2022-10-12T05:34:46.180Z,4.70
2022-10-12T05:37:14.171Z,4.70
2022-10-12T05:39:43.557Z,4.70
2022-10-12T05:42:11.464Z,4.80
2022-10-12T05:44:41.468Z,4.80
2022-10-12T05:47:09.453Z,4.80
2022-10-12T05:49:37.506Z,4.80
2022-10-12T05:52:05.691Z,4.80
2022-10-12T05:54:33.673Z,4.90
2022-10-12T05:57:03.335Z,5.00
2022-10-12T05:59:31.306Z,4.90
2022-10-12T06:01:59.258Z,4.90
2022-10-12T06:04:27.373Z,5.00
2022-10-12T06:06:55.284Z,5.10
2022-10-12T06:09:23.422Z,5.10
2022-10-12T06:11:51.393Z,5.20
2022-10-12T06:14:20.703Z,5.20
2022-10-12T06:16:51.103Z,5.30
2022-10-12T06:19:24.682Z,5.40
2022-10-12T06:21:52.754Z,5.50
2022-10-12T06:24:20.670Z,5.60
2022-10-12T06:26:48.652Z,5.70
2022-10-12T06:29:17.496Z,5.80
2022-10-12T06:31:51.443Z,6.00
2022-10-12T06:34:20.021Z,6.20
2022-10-12T06:36:48.056Z,6.70
2022-10-12T06:39:17.289Z,7.30
2022-10-12T06:41:45.329Z,8.10
2022-10-12T06:44:13.522Z,8.90
2022-10-12T06:46:41.497Z,9.60
2022-10-12T06:49:11.489Z,10.10
2022-10-12T06:51:39.456Z,10.70
2022-10-12T06:54:07.448Z,11.30
2022-10-12T06:56:35.636Z,11.60
2022-10-12T06:59:03.552Z,11.70
2022-10-12T07:01:31.679Z,12.20
2022-10-12T07:04:00.925Z,12.70
2022-10-12T07:06:30.694Z,13.00
2022-10-12T07:09:01.132Z,13.20
2022-10-12T07:11:29.408Z,13.30
2022-10-12T07:13:58.747Z,13.20
2022-10-12T07:16:27.039Z,13.20
2022-10-12T07:18:55.032Z,13.10
2022-10-12T07:21:23.107Z,13.50
2022-10-12T07:23:53.215Z,12.80
2022-10-12T07:26:21.371Z,13.30
2022-10-12T07:28:49.398Z,13.40
2022-10-12T07:31:17.403Z,13.30
2022-10-12T07:33:45.395Z,12.80
2022-10-12T07:36:15.656Z,12.10
2022-10-12T07:38:48.711Z,11.40
2022-10-12T07:41:18.725Z,10.70
2022-10-12T07:43:46.812Z,10.70
2022-10-12T07:46:14.984Z,10.50
2022-10-12T07:48:48.892Z,10.30
2022-10-12T07:51:19.793Z,10.20
2022-10-12T07:53:48.039Z,10.10
2022-10-12T07:56:17.919Z,10.00
2022-10-12T07:58:50.097Z,10.10
2022-10-12T08:01:19.644Z,10.00
2022-10-12T08:03:48.047Z,10.10
2022-10-12T08:06:18.594Z,10.20
2022-10-12T08:08:46.688Z,10.30
2022-10-12T08:11:14.907Z,10.30
2022-10-12T08:13:44.323Z,10.40
2022-10-12T08:16:15.912Z,10.50
2022-10-12T08:18:44.427Z,10.50
2022-10-12T08:21:14.527Z,10.60
2022-10-12T08:23:44.392Z,10.60
2022-10-12T08:26:13.011Z,10.70
2022-10-12T08:28:41.415Z,10.90
2022-10-12T08:31:13.348Z,11.00
2022-10-12T08:33:41.403Z,11.10
2022-10-12T08:36:10.119Z,11.10
2022-10-12T08:38:39.370Z,11.10
2022-10-12T08:41:27.311Z,11.20
2022-10-12T08:44:35.029Z,11.30
2022-10-12T08:47:12.597Z,11.50
2022-10-12T08:49:45.144Z,11.50
2022-10-12T08:52:28.097Z,11.60
2022-10-12T08:55:01.307Z,11.70
2022-10-12T08:57:29.427Z,11.80
2022-10-12T08:59:57.459Z,11.80
2022-10-12T09:02:51.938Z,11.90
2022-10-12T09:05:28.586Z,12.00
2022-10-12T09:08:02.204Z,12.10
2022-10-12T09:10:42.581Z,12.10
2022-10-12T09:13:23.734Z,12.30
2022-10-12T09:15:55.845Z,12.30
2022-10-12T09:18:40.471Z,12.30
2022-10-12T09:21:11.553Z,12.50
2022-10-12T09:23:41.091Z,12.70
2022-10-12T09:26:16.735Z,12.80
2022-10-12T09:28:47.052Z,12.90
2022-10-12T09:31:31.356Z,12.80
2022-10-12T09:34:05.486Z,12.70
2022-10-12T09:36:37.372Z,12.90
2022-10-12T09:39:07.976Z,13.10
2022-10-12T09:41:39.858Z,13.20
2022-10-12T09:44:10.847Z,13.20
2022-10-12T09:46:43.093Z,13.30
2022-10-12T09:49:12.393Z,13.50
2022-10-12T09:51:40.670Z,13.50
2022-10-12T09:54:16.679Z,13.50
2022-10-12T09:56:49.901Z,13.70
2022-10-12T09:59:28.096Z,13.70
2022-10-12T10:02:04.899Z,13.80
2022-10-12T10:04:34.790Z,13.60
2022-10-12T10:07:19.542Z,13.80
2022-10-12T10:09:49.068Z,14.00
2022-10-12T10:12:24.627Z,13.80
2022-10-12T10:14:54.604Z,13.90
2022-10-12T10:17:27.537Z,14.20
2022-10-12T10:19:58.946Z,14.30
2022-10-12T10:22:27.529Z,14.50
2022-10-12T10:25:00.545Z,14.50
2022-10-12T10:27:32.392Z,14.60
2022-10-12T10:30:29.498Z,14.70
2022-10-12T10:33:12.842Z,14.70
2022-10-12T10:35:43.444Z,14.80
2022-10-12T10:38:16.657Z,14.90
2022-10-12T10:40:51.973Z,14.80
2022-10-12T10:43:25.940Z,14.70
2022-10-12T10:45:56.664Z,14.70
2022-10-12T10:48:29.132Z,14.70
2022-10-12T10:51:01.483Z,14.80
2022-10-12T10:53:33.282Z,14.90
2022-10-12T10:56:06.709Z,15.10
2022-10-12T10:58:38.287Z,15.10
2022-10-12T11:01:19.418Z,14.90
2022-10-12T11:03:59.481Z,15.10
2022-10-12T11:06:36.793Z,15.10
2022-10-12T11:09:08.479Z,15.10
2022-10-12T11:11:38.463Z,15.10
2022-10-12T11:14:14.854Z,14.90
2022-10-12T11:16:46.774Z,14.80
2022-10-12T11:19:30.759Z,14.90
2022-10-12T11:22:05.742Z,15.10
2022-10-12T11:24:39.772Z,15.10
2022-10-12T11:27:13.742Z,15.20
2022-10-12T11:29:42.352Z,15.30
2022-10-12T11:32:22.758Z,15.20
2022-10-12T11:34:54.661Z,15.00
2022-10-12T11:37:34.269Z,15.20
2022-10-12T11:40:03.810Z,15.30
2022-10-12T11:42:37.093Z,15.40
2022-10-12T11:45:18.994Z,15.30
2022-10-12T11:47:49.186Z,15.40
2022-10-12T11:50:28.954Z,15.60
2022-10-12T11:53:01.254Z,15.70
2022-10-12T11:55:45.162Z,15.60
2022-10-12T11:58:18.966Z,15.70
2022-10-12T12:01:04.173Z,15.70
2022-10-12T12:03:39.757Z,15.80
2022-10-12T12:06:43.222Z,15.80
2022-10-12T12:09:21.956Z,16.10
2022-10-12T12:11:52.298Z,16.30
2022-10-12T12:14:47.898Z,16.20
2022-10-12T12:17:28.126Z,16.00
2022-10-12T12:19:59.644Z,15.80
2022-10-12T12:22:48.531Z,15.60
2022-10-12T12:25:29.347Z,15.70
2022-10-12T12:28:00.468Z,15.80
2022-10-12T12:30:38.419Z,15.90
2022-10-12T12:33:24.999Z,15.80
2022-10-12T12:35:56.168Z,16.00
2022-10-12T12:38:27.649Z,15.70
2022-10-12T12:41:08.758Z,15.50
2022-10-12T12:44:04.332Z,15.50
2022-10-12T12:47:32.531Z,15.60
2022-10-12T12:49:57.312Z,15.80
2022-10-12T12:52:29.325Z,15.80
2022-10-12T12:55:37.247Z,15.90
2022-10-12T12:58:21.220Z,15.90
2022-10-12T13:01:07.255Z,16.10
2022-10-12T13:03:59.434Z,16.20
2022-10-12T13:06:59.520Z,16.10
2022-10-12T13:10:00.520Z,15.90
2022-10-12T13:12:50.816Z,15.90
2022-10-12T13:15:35.284Z,16.00
2022-10-12T13:18:45.344Z,15.90
2022-10-12T13:21:16.653Z,15.80
2022-10-12T13:23:47.108Z,15.80
2022-10-12T13:26:19.875Z,15.70
2022-10-12T13:28:49.805Z,15.80
2022-10-12T13:31:24.091Z,15.70
2022-10-12T13:34:00.504Z,15.70
2022-10-12T13:36:31.735Z,15.60
2022-10-12T13:39:01.606Z,15.70
2022-10-12T13:41:31.288Z,15.70
2022-10-12T13:44:01.108Z,15.70
2022-10-12T13:46:40.761Z,15.80
2022-10-12T13:49:15.822Z,15.90
2022-10-12T13:51:45.126Z,15.80
2022-10-12T13:54:18.270Z,15.70
2022-10-12T13:56:48.822Z,15.70
2022-10-12T13:59:20.715Z,15.70
2022-10-12T14:01:55.764Z,15.60
2022-10-12T14:04:27.801Z,15.50
2022-10-12T14:07:00.657Z,15.50
2022-10-12T14:09:29.469Z,15.50
2022-10-12T14:11:58.047Z,15.50
2022-10-12T14:14:32.748Z,15.60
2022-10-12T14:17:02.717Z,15.60
2022-10-12T14:19:42.690Z,15.60
2022-10-12T14:22:11.273Z,15.50
2022-10-12T14:24:40.302Z,15.60
2022-10-12T14:27:09.818Z,15.50
2022-10-12T14:29:44.634Z,15.40
2022-10-12T14:32:42.406Z,15.30
2022-10-12T14:35:26.036Z,15.20
2022-10-12T14:37:55.923Z,15.20
2022-10-12T14:40:37.164Z,15.20
2022-10-12T14:43:09.424Z,15.10
2022-10-12T14:45:37.616Z,15.10
2022-10-12T14:48:15.052Z,15.10
2022-10-12T14:50:44.790Z,15.10
2022-10-12T14:53:14.728Z,15.10
2022-10-12T14:55:43.743Z,15.00
2022-10-12T14:58:16.208Z,15.00
2022-10-12T15:00:44.999Z,14.90
2022-10-12T15:03:14.414Z,14.80
2022-10-12T15:05:42.447Z,14.80
2022-10-12T15:08:10.676Z,14.70
2022-10-12T15:10:38.991Z,14.60
2022-10-12T15:13:06.966Z,14.60
2022-10-12T15:15:40.667Z,14.50
2022-10-12T15:18:11.023Z,14.50
2022-10-12T15:20:44.192Z,14.50
2022-10-12T15:23:15.096Z,14.40
2022-10-12T15:25:46.063Z,14.40
2022-10-12T15:28:14.360Z,14.30
2022-10-12T15:31:11.838Z,14.20
2022-10-12T15:33:35.549Z,14.10
2022-10-12T15:36:05.028Z,14.00
2022-10-12T15:38:33.145Z,14.00
2022-10-12T15:41:01.124Z,13.90
2022-10-12T15:43:29.652Z,13.80
2022-10-12T15:45:59.311Z,13.80
2022-10-12T15:48:28.353Z,13.80
2022-10-12T15:50:56.420Z,13.70
2022-10-12T15:53:27.248Z,13.60
2022-10-12T15:55:56.592Z,13.50
2022-10-12T15:58:25.609Z,13.40
2022-10-12T16:00:53.855Z,13.40
2022-10-12T16:03:25.940Z,13.30
2022-10-12T16:05:55.218Z,13.20
2022-10-12T16:08:23.163Z,13.10
2022-10-12T16:10:52.826Z,13.00
2022-10-12T16:13:20.828Z,12.90
2022-10-12T16:15:49.073Z,12.80
2022-10-12T16:18:17.704Z,12.80
2022-10-12T16:20:53.452Z,12.60
2022-10-12T16:23:24.766Z,12.50
2022-10-12T16:25:54.757Z,12.40
2022-10-12T16:28:23.864Z,12.40
2022-10-12T16:30:52.546Z,12.40
2022-10-12T16:33:20.691Z,12.20
2022-10-12T16:35:48.737Z,12.20
2022-10-12T16:38:19.710Z,12.00
2022-10-12T16:40:49.209Z,11.90
2022-10-12T16:43:19.539Z,11.70
2022-10-12T16:45:56.102Z,11.70
2022-10-12T16:48:26.613Z,11.70
2022-10-12T16:50:54.563Z,11.60
2022-10-12T16:53:22.606Z,11.70
2022-10-12T16:55:50.825Z,11.70
2022-10-12T16:58:20.274Z,11.50
2022-10-12T17:00:48.425Z,11.40
2022-10-12T17:03:16.505Z,11.30
2022-10-12T17:05:44.553Z,11.20
2022-10-12T17:08:15.813Z,11.20
2022-10-12T17:10:44.963Z,11.00
2022-10-12T17:13:14.462Z,10.90
2022-10-12T17:15:44.145Z,10.80
2022-10-12T17:18:12.535Z,10.80
2022-10-12T17:20:40.550Z,10.80
2022-10-12T17:23:11.085Z,10.80
2022-10-12T17:25:39.128Z,11.00
2022-10-12T17:28:07.240Z,11.00
2022-10-12T17:30:38.364Z,10.90
2022-10-12T17:33:07.703Z,10.90
2022-10-12T17:35:39.832Z,10.80
2022-10-12T17:38:07.816Z,10.80
2022-10-12T17:40:35.882Z,10.80
2022-10-12T17:43:03.862Z,10.60
2022-10-12T17:45:34.255Z,10.40
2022-10-12T17:48:02.224Z,10.40
2022-10-12T17:50:31.553Z,10.30
2022-10-12T17:52:59.562Z,10.20
2022-10-12T17:55:47.707Z,10.40
2022-10-12T17:58:15.375Z,10.50
2022-10-12T18:00:43.449Z,10.50
2022-10-12T18:03:12.363Z,10.50
2022-10-12T18:05:41.751Z,10.50
2022-10-12T18:08:12.073Z,10.50
2022-10-12T18:10:41.393Z,10.50
2022-10-12T18:13:09.772Z,10.40
2022-10-12T18:15:43.136Z,10.30
2022-10-12T18:18:15.157Z,10.20
2022-10-12T18:20:45.037Z,10.10
2022-10-12T18:23:13.184Z,10.00
2022-10-12T18:25:43.140Z,10.10
2022-10-12T18:28:12.691Z,10.30
2022-10-12T18:30:47.765Z,10.30
2022-10-12T18:33:16.371Z,10.30
2022-10-12T18:35:45.720Z,10.30
2022-10-12T18:38:13.671Z,10.30
2022-10-12T18:40:42.512Z,10.30
2022-10-12T18:43:11.202Z,10.40
2022-10-12T18:45:42.859Z,10.30
2022-10-12T18:48:10.900Z,10.40
2022-10-12T18:50:41.216Z,10.30
2022-10-12T18:53:10.627Z,10.40
2022-10-12T18:55:38.972Z,10.30
2022-10-12T18:58:07.453Z,10.30
2022-10-12T19:00:35.564Z,10.20
2022-10-12T19:03:03.799Z,10.20
2022-10-12T19:05:32.006Z,10.20
2022-10-12T19:07:59.955Z,10.20
2022-10-12T19:10:29.441Z,10.10
2022-10-12T19:12:58.667Z,10.00
2022-10-12T19:15:28.534Z,9.90
2022-10-12T19:17:58.746Z,9.90
2022-10-12T19:20:26.848Z,9.80
2022-10-12T19:22:54.812Z,9.80
2022-10-12T19:25:25.349Z,9.70
2022-10-12T19:27:54.675Z,9.70
2022-10-12T19:30:22.595Z,9.60
2022-10-12T19:32:50.604Z,9.60
2022-10-12T19:35:18.649Z,9.50
2022-10-12T19:37:46.692Z,9.50
2022-10-12T19:40:14.958Z,9.60
2022-10-12T19:42:42.968Z,9.40
2022-10-12T19:45:12.567Z,9.40
2022-10-12T19:47:40.534Z,9.30
2022-10-12T19:50:09.200Z,9.30
2022-10-12T19:52:37.152Z,9.20
2022-10-12T19:55:05.621Z,9.00
2022-10-12T19:57:37.961Z,8.90
2022-10-12T20:00:08.641Z,8.90
2022-10-12T20:02:42.926Z,8.80
2022-10-12T20:05:11.084Z,8.80
2022-10-12T20:07:39.692Z,8.70
2022-10-12T20:10:09.001Z,8.70
2022-10-12T20:12:37.114Z,8.80
2022-10-12T20:15:05.677Z,8.70
2022-10-12T20:17:33.683Z,8.80
2022-10-12T20:20:03.017Z,8.80
2022-10-12T20:22:30.957Z,8.60
2022-10-12T20:24:58.837Z,8.50
2022-10-12T20:27:27.159Z,8.50
2022-10-12T20:29:55.069Z,8.50
2022-10-12T20:32:23.007Z,8.40
2022-10-12T20:34:52.582Z,8.40
2022-10-12T20:37:22.498Z,8.50
2022-10-12T20:39:52.463Z,8.50
2022-10-12T20:42:22.056Z,8.50
2022-10-12T20:44:53.311Z,8.40
2022-10-12T20:47:21.264Z,8.40
2022-10-12T20:49:49.265Z,8.30
2022-10-12T20:52:17.564Z,8.30
2022-10-12T20:54:47.149Z,8.20
2022-10-12T20:57:15.154Z,8.30
2022-10-12T20:59:45.559Z,8.30
2022-10-12T21:02:13.487Z,8.30
2022-10-12T21:04:41.448Z,8.30
2022-10-12T21:07:09.690Z,8.20
2022-10-12T21:09:37.665Z,8.10
2022-10-12T21:12:07.108Z,8.10
2022-10-12T21:14:35.364Z,8.10
2022-10-12T21:17:05.764Z,8.10
2022-10-12T21:19:33.765Z,8.10
2022-10-12T21:22:01.685Z,8.10
2022-10-12T21:24:29.701Z,8.20
2022-10-12T21:26:57.647Z,8.20
2022-10-12T21:29:26.900Z,8.10
2022-10-12T21:31:54.875Z,8.20
2022-10-12T21:34:23.684Z,8.00
2022-10-12T21:36:51.659Z,7.90
2022-10-12T21:39:20.569Z,7.80
2022-10-12T21:41:48.548Z,7.80
2022-10-12T21:44:16.466Z,7.80
2022-10-12T21:46:45.738Z,7.70
2022-10-12T21:49:13.667Z,7.70
2022-10-12T21:51:41.603Z,7.70
2022-10-12T21:54:09.632Z,7.60
2022-10-12T21:56:38.464Z,7.50
2022-10-12T21:59:07.199Z,7.60
2022-10-12T22:01:37.164Z,7.50
2022-10-12T22:04:08.869Z,7.50
2022-10-12T22:06:36.839Z,7.50
2022-10-12T22:09:09.177Z,7.50
2022-10-12T22:11:38.974Z,7.40
2022-10-12T22:14:13.559Z,7.30
2022-10-12T22:16:43.171Z,7.30
2022-10-12T22:19:15.356Z,7.30
2022-10-12T22:21:43.381Z,7.20
2022-10-12T22:24:11.352Z,7.20
2022-10-12T22:26:39.463Z,7.30
2022-10-12T22:29:08.664Z,7.50
2022-10-12T22:31:37.377Z,7.60
2022-10-12T22:34:05.453Z,7.60
2022-10-12T22:36:37.822Z,7.70
2022-10-12T22:39:06.708Z,7.70
2022-10-12T22:41:34.658Z,7.70
2022-10-12T22:44:02.656Z,7.50
2022-10-12T22:46:31.027Z,7.60
2022-10-12T22:48:59.031Z,7.50
2022-10-12T22:51:30.405Z,7.50
2022-10-12T22:54:00.329Z,7.50
2022-10-12T22:56:28.976Z,7.30
2022-10-12T22:58:58.235Z,7.20
2022-10-12T23:01:29.217Z,7.20
2022-10-12T23:03:57.453Z,7.20
2022-10-12T23:06:26.458Z,7.30
2022-10-12T23:08:54.659Z,7.20
2022-10-12T23:11:25.711Z,7.00
2022-10-12T23:13:54.121Z,7.10
2022-10-12T23:16:23.775Z,7.00
2022-10-12T23:18:58.197Z,7.00
2022-10-12T23:21:28.381Z,6.90
2022-10-12T23:23:56.897Z,6.80
2022-10-12T23:26:27.464Z,6.80
2022-10-12T23:28:56.219Z,6.80
2022-10-12T23:31:26.291Z,6.80
2022-10-12T23:33:57.700Z,6.90
2022-10-12T23:36:26.177Z,6.90
2022-10-12T23:38:54.411Z,7.10
2022-10-12T23:41:22.507Z,6.90
2022-10-12T23:43:51.709Z,6.70
2022-10-12T23:46:19.675Z,6.80
2022-10-12T23:48:47.608Z,6.80
2022-10-12T23:51:17.702Z,6.70
2022-10-12T23:53:45.994Z,6.80
2022-10-12T23:56:14.321Z,6.80
2022-10-12T23:58:44.568Z,6.70
